Terminal Aerodrome Forecast
Issued by NWS

Home | Current Version | Previous Version | Text Only | Print | Product List | Glossary On
Versions: 1 2 3 4 5 6 7 8 9 10 11 12 13 14 15 16 17 18 19 20 21 22 23 24 25 26 27
000
FTUS44 KEWX 290528
TAFSSF
TAF
KSSF 290528Z 2906/3006 16005KT P6SM FEW016
     FM290615 35025G45KT 1SM +TSRA BR BKN008 OVC035CB
     FM290800 34008KT 5SM -TSRA SCT008 OVC035CB
     FM291200 14006KT P6SM BKN012 OVC040
     FM291600 14010KT P6SM BKN025 BKN040
     FM291900 14010KT P6SM BKN040
     FM300500 15007KT P6SM OVC012=

USA.gov is the U.S. government's official web portal to all federal, state and local government web resources and services.